Cochise — WDD8952 — position and weather

sailwx.info

Track history (hours):
 
Tides and Currents Weather Stations Pressure Air Temp Water Temp Dewpoint Dewpoint Depression Visibility Wind Speed Wind Dir Waves Ship Positions

Cochise

Owner: Sause Bros, Coos Bay, OR. More information available from US FCC via Universal Licensing System and Coast Guard Vessel Documentation Center.

Last reported at 2016-Jun-25 19:33 UTC. Time now 2016-Jun-25 19:41 UTC.
Position N 37°46' W 122°23'.

Length 32 m; draft 4.7 m.

Type: Towing. MMSI: 367304990.

Date/timePositionNaut miles runAvg speedWind from/ knotsBaromVisibWave heightAir tempDewpointWater temp
2016-Jun-25 19:33N 37°46' W 122°23'0 0.0
2016-Jun-25 18:33N 37°46' W 122°23'0 0.0
2016-Jun-25 17:33N 37°46' W 122°23'0 0.0
2016-Jun-25 16:33N 37°46' W 122°23'0 0.0
2016-Jun-25 15:33N 37°46' W 122°23'4 3.6
2016-Jun-25 14:33N 37°50' W 122°24'5 0.8
2016-Jun-25 08:32N 37°55' W 122°22'7 7.4
2016-Jun-25 07:33N 37°48' W 122°23'1 1.4
2016-Jun-25 06:33N 37°46' W 122°23'0 0.0
2016-Jun-25 05:33N 37°46' W 122°23'0 0.0
2016-Jun-25 04:33N 37°46' W 122°23'0 0.0
2016-Jun-25 03:33N 37°46' W 122°23'0 0.0
2016-Jun-25 02:33N 37°46' W 122°23'0 0.0
2016-Jun-25 01:33N 37°46' W 122°23'6 5.4
2016-Jun-25 00:28N 37°52' W 122°24'12 8.1
2016-Jun-24 23:03N 38°03' W 122°19'4 8.7
2016-Jun-24 22:33N 38°04' W 122°13'0 0.0
2016-Jun-24 04:33N 38°04' W 122°13'7 6.8
2016-Jun-24 03:33N 38°02' W 122°22'7 6.4
2016-Jun-24 02:32N 37°56' W 122°26'4 0.3
2016-Jun-23 12:05N 38°00' W 122°25'611.0
2016-Jun-23 11:30N 38°03' W 122°18'8 7.6
2016-Jun-23 10:29N 38°02' W 122°08'1 1.1
2016-Jun-23 09:10N 38°03' W 122°06'0 0.0
2016-Jun-23 08:28N 38°03' W 122°06'0 0.0
2016-Jun-23 07:28N 38°03' W 122°06'0 0.0
2016-Jun-22 18:33N 38°03' W 122°06'4 3.7
2016-Jun-22 17:33N 38°03' W 122°11'5 5.2
2016-Jun-22 16:33N 38°03' W 122°17'5 5.3
2016-Jun-22 15:33N 38°01' W 122°23'5 5.0
2016-Jun-22 14:33N 37°57' W 122°26'2 0.1
2016-Jun-21 16:31N 37°55' W 122°25'0 0.0
2016-Jun-21 15:31N 37°55' W 122°25'2 1.6
2016-Jun-21 14:33N 37°54' W 122°26'0 0.2
2016-Jun-21 13:27N 37°54' W 122°26'0 0.0
2016-Jun-21 09:33N 37°54' W 122°26'0 0.0
2016-Jun-21 08:33N 37°54' W 122°26'0 0.0
2016-Jun-21 07:33N 37°54' W 122°26'0 0.0
2016-Jun-21 04:33N 37°54' W 122°26'0 0.0
2016-Jun-21 03:33N 37°54' W 122°26'0 0.1
2016-Jun-21 02:30N 37°54' W 122°26'3 3.1
2016-Jun-21 01:33N 37°51' W 122°24'9 8.8
2016-Jun-21 00:33N 37°47' W 122°34'9 9.4
2016-Jun-20 23:33N 37°47' W 122°46'10 9.7
2016-Jun-20 22:33N 37°51' W 122°57'10 9.6
2016-Jun-20 21:33N 37°56' W 123°07'10 9.5
2016-Jun-20 20:33N 38°02' W 123°16'10 9.8
2016-Jun-20 19:33N 38°10' W 123°24'1010.1
2016-Jun-20 18:33N 38°19' W 123°30'1010.4
2016-Jun-20 17:33N 38°28' W 123°37'1010.3
2016-Jun-20 16:33N 38°36' W 123°44'10 9.8
2016-Jun-20 15:29N 38°45' W 123°51'23 0.5
2016-Jun-18 13:06N 38°25' W 123°37'4 8.1
2016-Jun-18 12:33N 38°22' W 123°33'9 8.9
2016-Jun-18 11:33N 38°15' W 123°26'9 8.8
2016-Jun-18 10:33N 38°08' W 123°19'9 9.1
2016-Jun-18 09:33N 38°01' W 123°11'9 8.9
2016-Jun-18 08:33N 37°56' W 123°02'9 9.1
2016-Jun-18 07:33N 37°51' W 122°52'11 8.9
2016-Jun-18 06:20N 37°47' W 122°40'7 8.6
2016-Jun-18 05:33N 37°48' W 122°32'7 6.3
2016-Jun-18 04:27N 37°53' W 122°25'3 0.1
2016-Jun-17 04:33N 37°55' W 122°25'1 1.0
2016-Jun-17 03:22N 37°55' W 122°26'0 0.0
2016-Jun-16 08:14N 37°55' W 122°26'1 0.2
2016-Jun-16 05:33N 37°55' W 122°26'11 8.3
2016-Jun-16 04:11N 38°04' W 122°16'  
Track history (hours):
 
Tides and Currents Weather Stations Pressure Air Temp Water Temp Dewpoint Dewpoint Depression Visibility Wind Speed Wind Dir Waves Ship Positions

Cochise

Owner: Sause Bros, Coos Bay, OR. More information available from US FCC via Universal Licensing System and Coast Guard Vessel Documentation Center.

Last reported at 2016-Jun-25 19:33 UTC. Time now 2016-Jun-25 19:41 UTC.
Position N 37°46' W 122°23'.

Length 32 m; draft 4.7 m.

Type: Towing. MMSI: 367304990.

Date/timePositionNaut miles runAvg speedWind from/ knotsBaromVisibWave heightAir tempDewpointWater temp
2016-Jun-25 19:33N 37°46' W 122°23'0 0.0
2016-Jun-25 18:33N 37°46' W 122°23'0 0.0
2016-Jun-25 17:33N 37°46' W 122°23'0 0.0
2016-Jun-25 16:33N 37°46' W 122°23'0 0.0
2016-Jun-25 15:33N 37°46' W 122°23'4 3.6
2016-Jun-25 14:33N 37°50' W 122°24'5 0.8
2016-Jun-25 08:32N 37°55' W 122°22'7 7.4
2016-Jun-25 07:33N 37°48' W 122°23'1 1.4
2016-Jun-25 06:33N 37°46' W 122°23'0 0.0
2016-Jun-25 05:33N 37°46' W 122°23'0 0.0
2016-Jun-25 04:33N 37°46' W 122°23'0 0.0
2016-Jun-25 03:33N 37°46' W 122°23'0 0.0
2016-Jun-25 02:33N 37°46' W 122°23'0 0.0
2016-Jun-25 01:33N 37°46' W 122°23'6 5.4
2016-Jun-25 00:28N 37°52' W 122°24'12 8.1
2016-Jun-24 23:03N 38°03' W 122°19'4 8.7
2016-Jun-24 22:33N 38°04' W 122°13'0 0.0
2016-Jun-24 04:33N 38°04' W 122°13'7 6.8
2016-Jun-24 03:33N 38°02' W 122°22'7 6.4
2016-Jun-24 02:32N 37°56' W 122°26'4 0.3
2016-Jun-23 12:05N 38°00' W 122°25'611.0
2016-Jun-23 11:30N 38°03' W 122°18'8 7.6
2016-Jun-23 10:29N 38°02' W 122°08'1 1.1
2016-Jun-23 09:10N 38°03' W 122°06'0 0.0
2016-Jun-23 08:28N 38°03' W 122°06'0 0.0
2016-Jun-23 07:28N 38°03' W 122°06'0 0.0
2016-Jun-22 18:33N 38°03' W 122°06'4 3.7
2016-Jun-22 17:33N 38°03' W 122°11'5 5.2
2016-Jun-22 16:33N 38°03' W 122°17'5 5.3
2016-Jun-22 15:33N 38°01' W 122°23'5 5.0
2016-Jun-22 14:33N 37°57' W 122°26'2 0.1
2016-Jun-21 16:31N 37°55' W 122°25'0 0.0
2016-Jun-21 15:31N 37°55' W 122°25'2 1.6
2016-Jun-21 14:33N 37°54' W 122°26'0 0.2
2016-Jun-21 13:27N 37°54' W 122°26'0 0.0
2016-Jun-21 09:33N 37°54' W 122°26'0 0.0
2016-Jun-21 08:33N 37°54' W 122°26'0 0.0
2016-Jun-21 07:33N 37°54' W 122°26'0 0.0
2016-Jun-21 04:33N 37°54' W 122°26'0 0.0
2016-Jun-21 03:33N 37°54' W 122°26'0 0.1
2016-Jun-21 02:30N 37°54' W 122°26'3 3.1
2016-Jun-21 01:33N 37°51' W 122°24'9 8.8
2016-Jun-21 00:33N 37°47' W 122°34'9 9.4
2016-Jun-20 23:33N 37°47' W 122°46'10 9.7
2016-Jun-20 22:33N 37°51' W 122°57'10 9.6
2016-Jun-20 21:33N 37°56' W 123°07'10 9.5
2016-Jun-20 20:33N 38°02' W 123°16'10 9.8
2016-Jun-20 19:33N 38°10' W 123°24'1010.1
2016-Jun-20 18:33N 38°19' W 123°30'1010.4
2016-Jun-20 17:33N 38°28' W 123°37'1010.3
2016-Jun-20 16:33N 38°36' W 123°44'10 9.8
2016-Jun-20 15:29N 38°45' W 123°51'23 0.5
2016-Jun-18 13:06N 38°25' W 123°37'4 8.1
2016-Jun-18 12:33N 38°22' W 123°33'9 8.9
2016-Jun-18 11:33N 38°15' W 123°26'9 8.8
2016-Jun-18 10:33N 38°08' W 123°19'9 9.1
2016-Jun-18 09:33N 38°01' W 123°11'9 8.9
2016-Jun-18 08:33N 37°56' W 123°02'9 9.1
2016-Jun-18 07:33N 37°51' W 122°52'11 8.9
2016-Jun-18 06:20N 37°47' W 122°40'7 8.6
2016-Jun-18 05:33N 37°48' W 122°32'7 6.3
2016-Jun-18 04:27N 37°53' W 122°25'3 0.1
2016-Jun-17 04:33N 37°55' W 122°25'1 1.0
2016-Jun-17 03:22N 37°55' W 122°26'0 0.0
2016-Jun-16 08:14N 37°55' W 122°26'1 0.2
2016-Jun-16 05:33N 37°55' W 122°26'11 8.3
2016-Jun-16 04:11N 38°04' W 122°16'  

Dump ship's entire track history